sensor_id;sensor_type;location;lat;lon;timestamp;temperature;humidity
21035;DHT22;10676;50.848;3.272;2024-02-14T00:00:12;11.40;99.90
21035;DHT22;10676;50.848;3.272;2024-02-14T00:02:43;11.40;99.90
21035;DHT22;10676;50.848;3.272;2024-02-14T00:05:09;11.40;99.90
21035;DHT22;10676;50.848;3.272;2024-02-14T00:07:37;11.40;99.90
21035;DHT22;10676;50.848;3.272;2024-02-14T00:10:03;11.40;99.90
21035;DHT22;10676;50.848;3.272;2024-02-14T00:12:32;11.30;99.90
21035;DHT22;10676;50.848;3.272;2024-02-14T00:14:58;11.30;99.90
21035;DHT22;10676;50.848;3.272;2024-02-14T00:17:23;11.30;99.90
21035;DHT22;10676;50.848;3.272;2024-02-14T00:19:49;11.40;99.90
21035;DHT22;10676;50.848;3.272;2024-02-14T00:22:15;11.40;99.90
21035;DHT22;10676;50.848;3.272;2024-02-14T00:24:41;11.40;99.90
21035;DHT22;10676;50.848;3.272;2024-02-14T00:27:07;11.40;99.90
21035;DHT22;10676;50.848;3.272;2024-02-14T00:29:33;11.40;99.90
21035;DHT22;10676;50.848;3.272;2024-02-14T00:32:01;11.50;99.90
21035;DHT22;10676;50.848;3.272;2024-02-14T00:34:27;11.40;99.90
21035;DHT22;10676;50.848;3.272;2024-02-14T00:36:53;11.50;99.90
21035;DHT22;10676;50.848;3.272;2024-02-14T00:39:18;11.50;99.90
21035;DHT22;10676;50.848;3.272;2024-02-14T00:41:46;11.50;99.90
21035;DHT22;10676;50.848;3.272;2024-02-14T00:44:13;11.50;99.90
21035;DHT22;10676;50.848;3.272;2024-02-14T00:46:42;11.50;99.90
21035;DHT22;10676;50.848;3.272;2024-02-14T00:49:09;11.40;99.90
21035;DHT22;10676;50.848;3.272;2024-02-14T00:51:35;11.40;99.90
21035;DHT22;10676;50.848;3.272;2024-02-14T00:54:03;11.40;99.90
21035;DHT22;10676;50.848;3.272;2024-02-14T00:56:29;11.40;99.90
21035;DHT22;10676;50.848;3.272;2024-02-14T00:58:54;11.50;99.90
21035;DHT22;10676;50.848;3.272;2024-02-14T01:01:20;11.50;99.90
21035;DHT22;10676;50.848;3.272;2024-02-14T01:03:46;11.50;99.90
21035;DHT22;10676;50.848;3.272;2024-02-14T01:06:12;11.50;99.90
21035;DHT22;10676;50.848;3.272;2024-02-14T01:08:39;11.50;99.90
21035;DHT22;10676;50.848;3.272;2024-02-14T01:11:07;11.50;99.90
21035;DHT22;10676;50.848;3.272;2024-02-14T01:13:33;11.40;99.90
21035;DHT22;10676;50.848;3.272;2024-02-14T01:15:59;11.40;99.90
21035;DHT22;10676;50.848;3.272;2024-02-14T01:18:25;11.40;99.90
21035;DHT22;10676;50.848;3.272;2024-02-14T01:20:50;11.40;99.90
21035;DHT22;10676;50.848;3.272;2024-02-14T01:23:16;11.40;99.90
21035;DHT22;10676;50.848;3.272;2024-02-14T01:25:42;11.50;99.90
21035;DHT22;10676;50.848;3.272;2024-02-14T01:28:09;11.50;99.90
21035;DHT22;10676;50.848;3.272;2024-02-14T01:30:35;11.50;99.90
21035;DHT22;10676;50.848;3.272;2024-02-14T01:33:02;11.60;99.90
21035;DHT22;10676;50.848;3.272;2024-02-14T01:35:32;11.60;99.90
21035;DHT22;10676;50.848;3.272;2024-02-14T01:37:58;11.60;99.90
21035;DHT22;10676;50.848;3.272;2024-02-14T01:40:23;11.70;99.90
21035;DHT22;10676;50.848;3.272;2024-02-14T01:42:49;11.60;99.90
21035;DHT22;10676;50.848;3.272;2024-02-14T01:45:15;11.70;99.90
21035;DHT22;10676;50.848;3.272;2024-02-14T01:47:41;11.70;99.90
21035;DHT22;10676;50.848;3.272;2024-02-14T01:50:09;11.60;99.90
21035;DHT22;10676;50.848;3.272;2024-02-14T01:52:38;11.60;99.90
21035;DHT22;10676;50.848;3.272;2024-02-14T01:55:06;11.60;99.90
21035;DHT22;10676;50.848;3.272;2024-02-14T01:57:33;11.60;99.90
21035;DHT22;10676;50.848;3.272;2024-02-14T02:00:00;11.60;99.90
21035;DHT22;10676;50.848;3.272;2024-02-14T02:02:36;11.60;99.90
21035;DHT22;10676;50.848;3.272;2024-02-14T02:05:03;11.70;99.90
21035;DHT22;10676;50.848;3.272;2024-02-14T02:07:29;11.70;99.90
21035;DHT22;10676;50.848;3.272;2024-02-14T02:09:55;11.70;99.90
21035;DHT22;10676;50.848;3.272;2024-02-14T02:12:21;11.80;99.90
21035;DHT22;10676;50.848;3.272;2024-02-14T02:14:47;11.80;99.90
21035;DHT22;10676;50.848;3.272;2024-02-14T02:17:12;11.80;99.90
21035;DHT22;10676;50.848;3.272;2024-02-14T02:19:39;11.70;99.90
21035;DHT22;10676;50.848;3.272;2024-02-14T02:22:04;11.70;99.90
21035;DHT22;10676;50.848;3.272;2024-02-14T02:24:30;11.70;99.90
21035;DHT22;10676;50.848;3.272;2024-02-14T02:26:56;11.70;99.90
21035;DHT22;10676;50.848;3.272;2024-02-14T02:29:22;11.70;99.90
21035;DHT22;10676;50.848;3.272;2024-02-14T02:31:48;11.80;99.90
21035;DHT22;10676;50.848;3.272;2024-02-14T02:34:13;11.80;99.90
21035;DHT22;10676;50.848;3.272;2024-02-14T02:36:42;11.80;99.90
21035;DHT22;10676;50.848;3.272;2024-02-14T02:39:09;11.80;99.90
21035;DHT22;10676;50.848;3.272;2024-02-14T02:41:34;11.90;99.90
21035;DHT22;10676;50.848;3.272;2024-02-14T02:44:00;11.90;99.90
21035;DHT22;10676;50.848;3.272;2024-02-14T02:46:27;11.80;99.90
21035;DHT22;10676;50.848;3.272;2024-02-14T02:48:53;11.90;99.90
21035;DHT22;10676;50.848;3.272;2024-02-14T02:51:22;12.00;99.90
21035;DHT22;10676;50.848;3.272;2024-02-14T02:53:48;12.00;99.90
21035;DHT22;10676;50.848;3.272;2024-02-14T02:56:13;12.00;99.90
21035;DHT22;10676;50.848;3.272;2024-02-14T02:58:40;12.00;99.90
21035;DHT22;10676;50.848;3.272;2024-02-14T03:01:09;12.00;99.90
21035;DHT22;10676;50.848;3.272;2024-02-14T03:03:35;12.00;99.90
21035;DHT22;10676;50.848;3.272;2024-02-14T03:06:03;12.00;99.90
21035;DHT22;10676;50.848;3.272;2024-02-14T03:08:29;11.90;99.90
21035;DHT22;10676;50.848;3.272;2024-02-14T03:11:01;11.90;99.90
21035;DHT22;10676;50.848;3.272;2024-02-14T03:13:27;11.90;99.90
21035;DHT22;10676;50.848;3.272;2024-02-14T03:15:54;11.90;99.90
21035;DHT22;10676;50.848;3.272;2024-02-14T03:18:26;11.90;99.90
21035;DHT22;10676;50.848;3.272;2024-02-14T03:20:52;11.90;99.90
21035;DHT22;10676;50.848;3.272;2024-02-14T03:23:19;11.90;99.90
21035;DHT22;10676;50.848;3.272;2024-02-14T03:25:45;11.90;99.90
21035;DHT22;10676;50.848;3.272;2024-02-14T03:28:11;11.90;99.90
21035;DHT22;10676;50.848;3.272;2024-02-14T03:30:39;12.00;99.90
21035;DHT22;10676;50.848;3.272;2024-02-14T03:33:05;12.00;99.90
21035;DHT22;10676;50.848;3.272;2024-02-14T03:35:33;12.00;99.90
21035;DHT22;10676;50.848;3.272;2024-02-14T03:38:01;12.00;99.90
21035;DHT22;10676;50.848;3.272;2024-02-14T03:40:27;12.00;99.90
21035;DHT22;10676;50.848;3.272;2024-02-14T03:42:58;12.00;99.90
21035;DHT22;10676;50.848;3.272;2024-02-14T03:45:24;12.10;99.90
21035;DHT22;10676;50.848;3.272;2024-02-14T03:47:49;12.10;99.90
21035;DHT22;10676;50.848;3.272;2024-02-14T03:50:15;12.10;99.90
21035;DHT22;10676;50.848;3.272;2024-02-14T03:52:41;12.10;99.90
21035;DHT22;10676;50.848;3.272;2024-02-14T03:55:08;12.10;99.90
21035;DHT22;10676;50.848;3.272;2024-02-14T03:57:40;12.00;99.90
21035;DHT22;10676;50.848;3.272;2024-02-14T04:00:06;12.10;99.90
21035;DHT22;10676;50.848;3.272;2024-02-14T04:02:34;12.10;99.90
21035;DHT22;10676;50.848;3.272;2024-02-14T04:05:00;12.10;99.90
21035;DHT22;10676;50.848;3.272;2024-02-14T04:07:27;12.00;99.90
21035;DHT22;10676;50.848;3.272;2024-02-14T04:09:53;12.10;99.90
21035;DHT22;10676;50.848;3.272;2024-02-14T04:12:19;12.10;99.90
21035;DHT22;10676;50.848;3.272;2024-02-14T04:14:45;12.10;99.90
21035;DHT22;10676;50.848;3.272;2024-02-14T04:17:10;12.10;99.90
21035;DHT22;10676;50.848;3.272;2024-02-14T04:19:38;12.20;99.90
21035;DHT22;10676;50.848;3.272;2024-02-14T04:22:03;12.20;99.90
21035;DHT22;10676;50.848;3.272;2024-02-14T04:24:29;12.20;99.90
21035;DHT22;10676;50.848;3.272;2024-02-14T04:26:55;12.20;99.90
21035;DHT22;10676;50.848;3.272;2024-02-14T04:29:22;12.30;99.90
21035;DHT22;10676;50.848;3.272;2024-02-14T04:31:48;12.30;99.90
21035;DHT22;10676;50.848;3.272;2024-02-14T04:34:14;12.30;99.90
21035;DHT22;10676;50.848;3.272;2024-02-14T04:36:40;12.40;99.90
21035;DHT22;10676;50.848;3.272;2024-02-14T04:39:06;12.40;99.90
21035;DHT22;10676;50.848;3.272;2024-02-14T04:41:34;12.40;99.90
21035;DHT22;10676;50.848;3.272;2024-02-14T04:44:03;12.40;99.90
21035;DHT22;10676;50.848;3.272;2024-02-14T04:46:32;12.40;99.90
21035;DHT22;10676;50.848;3.272;2024-02-14T04:48:58;12.40;99.90
21035;DHT22;10676;50.848;3.272;2024-02-14T04:51:23;12.40;99.90
21035;DHT22;10676;50.848;3.272;2024-02-14T04:53:49;12.40;99.90
21035;DHT22;10676;50.848;3.272;2024-02-14T04:56:14;12.40;99.90
21035;DHT22;10676;50.848;3.272;2024-02-14T04:58:40;12.40;99.90
21035;DHT22;10676;50.848;3.272;2024-02-14T05:01:06;12.40;99.90
21035;DHT22;10676;50.848;3.272;2024-02-14T05:03:32;12.40;99.90
21035;DHT22;10676;50.848;3.272;2024-02-14T05:05:58;12.40;99.90
21035;DHT22;10676;50.848;3.272;2024-02-14T05:08:24;12.40;99.90
21035;DHT22;10676;50.848;3.272;2024-02-14T05:10:50;12.40;99.90
21035;DHT22;10676;50.848;3.272;2024-02-14T05:13:15;12.40;99.90
21035;DHT22;10676;50.848;3.272;2024-02-14T05:15:42;12.40;99.90
21035;DHT22;10676;50.848;3.272;2024-02-14T05:18:07;12.50;99.90
21035;DHT22;10676;50.848;3.272;2024-02-14T05:20:35;12.50;99.90
21035;DHT22;10676;50.848;3.272;2024-02-14T05:23:01;12.50;99.90
21035;DHT22;10676;50.848;3.272;2024-02-14T05:25:26;12.50;99.90
21035;DHT22;10676;50.848;3.272;2024-02-14T05:27:55;12.50;99.90
21035;DHT22;10676;50.848;3.272;2024-02-14T05:30:20;12.60;99.90
21035;DHT22;10676;50.848;3.272;2024-02-14T05:32:46;12.60;99.90
21035;DHT22;10676;50.848;3.272;2024-02-14T05:35:12;12.70;99.90
21035;DHT22;10676;50.848;3.272;2024-02-14T05:37:37;12.70;99.90
21035;DHT22;10676;50.848;3.272;2024-02-14T05:40:04;12.70;99.90
21035;DHT22;10676;50.848;3.272;2024-02-14T05:42:32;12.60;99.90
21035;DHT22;10676;50.848;3.272;2024-02-14T05:44:57;12.70;99.90
21035;DHT22;10676;50.848;3.272;2024-02-14T05:47:23;12.60;99.90
21035;DHT22;10676;50.848;3.272;2024-02-14T05:49:50;12.60;99.90
21035;DHT22;10676;50.848;3.272;2024-02-14T05:52:16;12.60;99.90
21035;DHT22;10676;50.848;3.272;2024-02-14T05:54:43;12.60;99.90
21035;DHT22;10676;50.848;3.272;2024-02-14T05:57:09;12.60;99.90
21035;DHT22;10676;50.848;3.272;2024-02-14T05:59:35;12.70;99.90
21035;DHT22;10676;50.848;3.272;2024-02-14T06:02:00;12.70;99.90
21035;DHT22;10676;50.848;3.272;2024-02-14T06:04:28;12.70;99.90
21035;DHT22;10676;50.848;3.272;2024-02-14T06:06:54;12.70;99.90
21035;DHT22;10676;50.848;3.272;2024-02-14T06:09:19;12.60;99.90
21035;DHT22;10676;50.848;3.272;2024-02-14T06:11:45;12.70;99.90
21035;DHT22;10676;50.848;3.272;2024-02-14T06:14:11;12.70;99.90
21035;DHT22;10676;50.848;3.272;2024-02-14T06:16:36;12.70;99.90
21035;DHT22;10676;50.848;3.272;2024-02-14T06:19:03;12.70;99.90
21035;DHT22;10676;50.848;3.272;2024-02-14T06:21:32;12.70;99.90
21035;DHT22;10676;50.848;3.272;2024-02-14T06:23:59;12.70;99.90
21035;DHT22;10676;50.848;3.272;2024-02-14T06:26:25;12.70;99.90
21035;DHT22;10676;50.848;3.272;2024-02-14T06:28:50;12.80;99.90
21035;DHT22;10676;50.848;3.272;2024-02-14T06:31:20;12.80;99.90
21035;DHT22;10676;50.848;3.272;2024-02-14T06:33:48;12.80;99.90
21035;DHT22;10676;50.848;3.272;2024-02-14T06:36:14;12.80;99.90
21035;DHT22;10676;50.848;3.272;2024-02-14T06:38:40;12.80;99.90
21035;DHT22;10676;50.848;3.272;2024-02-14T06:41:06;12.80;99.90
21035;DHT22;10676;50.848;3.272;2024-02-14T06:43:31;12.90;99.90
21035;DHT22;10676;50.848;3.272;2024-02-14T06:45:57;12.90;99.90
21035;DHT22;10676;50.848;3.272;2024-02-14T06:48:50;12.90;99.90
21035;DHT22;10676;50.848;3.272;2024-02-14T06:51:16;12.80;99.90
21035;DHT22;10676;50.848;3.272;2024-02-14T06:53:42;12.90;99.90
21035;DHT22;10676;50.848;3.272;2024-02-14T06:56:07;12.90;99.90
21035;DHT22;10676;50.848;3.272;2024-02-14T06:58:33;12.90;99.90
21035;DHT22;10676;50.848;3.272;2024-02-14T07:00:58;12.90;99.90
21035;DHT22;10676;50.848;3.272;2024-02-14T07:03:25;12.80;99.90
21035;DHT22;10676;50.848;3.272;2024-02-14T07:05:50;12.80;99.90
21035;DHT22;10676;50.848;3.272;2024-02-14T07:08:17;12.90;99.90
21035;DHT22;10676;50.848;3.272;2024-02-14T07:10:43;12.90;99.90
21035;DHT22;10676;50.848;3.272;2024-02-14T07:13:08;12.90;99.90
21035;DHT22;10676;50.848;3.272;2024-02-14T07:15:34;12.90;99.90
21035;DHT22;10676;50.848;3.272;2024-02-14T07:18:00;12.90;99.90
21035;DHT22;10676;50.848;3.272;2024-02-14T07:20:27;12.90;99.90
21035;DHT22;10676;50.848;3.272;2024-02-14T07:22:53;12.80;99.90
21035;DHT22;10676;50.848;3.272;2024-02-14T07:25:19;12.80;99.90
21035;DHT22;10676;50.848;3.272;2024-02-14T07:27:45;12.80;99.90
21035;DHT22;10676;50.848;3.272;2024-02-14T07:30:16;12.90;99.90
21035;DHT22;10676;50.848;3.272;2024-02-14T07:32:43;12.90;99.90
21035;DHT22;10676;50.848;3.272;2024-02-14T07:35:09;12.90;99.90
21035;DHT22;10676;50.848;3.272;2024-02-14T07:37:34;13.00;99.90
21035;DHT22;10676;50.848;3.272;2024-02-14T07:40:00;13.00;99.90
21035;DHT22;10676;50.848;3.272;2024-02-14T07:42:25;13.00;99.90
21035;DHT22;10676;50.848;3.272;2024-02-14T07:44:51;13.10;99.90
21035;DHT22;10676;50.848;3.272;2024-02-14T07:47:17;13.10;99.90
21035;DHT22;10676;50.848;3.272;2024-02-14T07:49:42;13.20;99.90
21035;DHT22;10676;50.848;3.272;2024-02-14T07:52:08;13.20;99.90
21035;DHT22;10676;50.848;3.272;2024-02-14T07:54:33;13.20;99.90
21035;DHT22;10676;50.848;3.272;2024-02-14T07:56:59;13.30;99.90
21035;DHT22;10676;50.848;3.272;2024-02-14T07:59:25;13.30;99.90
21035;DHT22;10676;50.848;3.272;2024-02-14T08:01:50;13.40;99.90
21035;DHT22;10676;50.848;3.272;2024-02-14T08:04:16;13.40;99.90
21035;DHT22;10676;50.848;3.272;2024-02-14T08:06:44;13.50;99.90
21035;DHT22;10676;50.848;3.272;2024-02-14T08:09:10;13.50;99.90
21035;DHT22;10676;50.848;3.272;2024-02-14T08:11:36;13.60;99.90
21035;DHT22;10676;50.848;3.272;2024-02-14T08:14:02;13.60;99.90
21035;DHT22;10676;50.848;3.272;2024-02-14T08:16:28;13.70;99.90
21035;DHT22;10676;50.848;3.272;2024-02-14T08:18:54;13.70;99.90
21035;DHT22;10676;50.848;3.272;2024-02-14T08:21:25;13.70;99.90
21035;DHT22;10676;50.848;3.272;2024-02-14T08:23:52;13.80;99.90
21035;DHT22;10676;50.848;3.272;2024-02-14T08:26:18;13.80;99.90
21035;DHT22;10676;50.848;3.272;2024-02-14T08:28:43;13.80;99.90
21035;DHT22;10676;50.848;3.272;2024-02-14T08:31:12;13.80;99.90
21035;DHT22;10676;50.848;3.272;2024-02-14T08:33:38;13.70;99.90
21035;DHT22;10676;50.848;3.272;2024-02-14T08:36:04;13.60;99.90
21035;DHT22;10676;50.848;3.272;2024-02-14T08:38:30;13.50;99.90
21035;DHT22;10676;50.848;3.272;2024-02-14T08:40:56;13.50;99.90
21035;DHT22;10676;50.848;3.272;2024-02-14T08:43:22;13.30;99.90
21035;DHT22;10676;50.848;3.272;2024-02-14T08:45:50;13.20;99.90
21035;DHT22;10676;50.848;3.272;2024-02-14T08:48:17;13.20;99.90
21035;DHT22;10676;50.848;3.272;2024-02-14T08:50:43;13.10;99.90
21035;DHT22;10676;50.848;3.272;2024-02-14T08:53:09;13.00;99.90
21035;DHT22;10676;50.848;3.272;2024-02-14T08:55:35;12.90;99.90
21035;DHT22;10676;50.848;3.272;2024-02-14T08:58:02;12.90;99.90
21035;DHT22;10676;50.848;3.272;2024-02-14T09:00:27;12.90;99.90
21035;DHT22;10676;50.848;3.272;2024-02-14T09:02:56;12.90;99.90
21035;DHT22;10676;50.848;3.272;2024-02-14T09:05:21;12.80;99.90
21035;DHT22;10676;50.848;3.272;2024-02-14T09:07:48;12.90;99.90
21035;DHT22;10676;50.848;3.272;2024-02-14T09:10:14;12.90;99.90
21035;DHT22;10676;50.848;3.272;2024-02-14T09:12:39;12.90;99.90
21035;DHT22;10676;50.848;3.272;2024-02-14T09:15:07;12.90;99.90
21035;DHT22;10676;50.848;3.272;2024-02-14T09:17:33;12.90;99.90
21035;DHT22;10676;50.848;3.272;2024-02-14T09:19:59;12.90;99.90
21035;DHT22;10676;50.848;3.272;2024-02-14T09:22:24;12.90;99.90
21035;DHT22;10676;50.848;3.272;2024-02-14T09:24:50;12.90;99.90
21035;DHT22;10676;50.848;3.272;2024-02-14T09:27:16;12.90;99.90
21035;DHT22;10676;50.848;3.272;2024-02-14T09:29:42;12.90;99.90
21035;DHT22;10676;50.848;3.272;2024-02-14T09:32:08;12.90;99.90
21035;DHT22;10676;50.848;3.272;2024-02-14T09:34:34;13.00;99.90
21035;DHT22;10676;50.848;3.272;2024-02-14T09:37:00;13.10;99.90
21035;DHT22;10676;50.848;3.272;2024-02-14T09:39:26;13.10;99.90
21035;DHT22;10676;50.848;3.272;2024-02-14T09:41:54;13.20;99.90
21035;DHT22;10676;50.848;3.272;2024-02-14T09:44:27;13.20;99.90
21035;DHT22;10676;50.848;3.272;2024-02-14T09:46:54;13.30;99.90
21035;DHT22;10676;50.848;3.272;2024-02-14T09:49:21;13.30;99.90
21035;DHT22;10676;50.848;3.272;2024-02-14T09:51:48;13.30;99.90
21035;DHT22;10676;50.848;3.272;2024-02-14T09:54:16;13.40;99.90
21035;DHT22;10676;50.848;3.272;2024-02-14T09:56:43;13.30;99.90
21035;DHT22;10676;50.848;3.272;2024-02-14T09:59:13;13.40;99.90
21035;DHT22;10676;50.848;3.272;2024-02-14T10:01:40;13.40;99.90
21035;DHT22;10676;50.848;3.272;2024-02-14T10:04:06;13.40;99.90
21035;DHT22;10676;50.848;3.272;2024-02-14T10:06:32;13.50;99.90
21035;DHT22;10676;50.848;3.272;2024-02-14T10:08:59;13.40;99.90
21035;DHT22;10676;50.848;3.272;2024-02-14T10:11:24;13.50;99.90
21035;DHT22;10676;50.848;3.272;2024-02-14T10:13:52;13.50;99.90
21035;DHT22;10676;50.848;3.272;2024-02-14T10:16:19;13.50;99.90
21035;DHT22;10676;50.848;3.272;2024-02-14T10:18:48;13.60;99.90
21035;DHT22;10676;50.848;3.272;2024-02-14T10:21:16;13.60;99.90
21035;DHT22;10676;50.848;3.272;2024-02-14T10:23:45;13.70;99.90
21035;DHT22;10676;50.848;3.272;2024-02-14T10:26:15;13.80;99.90
21035;DHT22;10676;50.848;3.272;2024-02-14T10:28:45;13.90;99.90
21035;DHT22;10676;50.848;3.272;2024-02-14T10:31:11;14.00;99.90
21035;DHT22;10676;50.848;3.272;2024-02-14T10:33:37;14.10;99.90
21035;DHT22;10676;50.848;3.272;2024-02-14T10:36:03;14.20;99.90
21035;DHT22;10676;50.848;3.272;2024-02-14T10:38:32;14.30;99.90
21035;DHT22;10676;50.848;3.272;2024-02-14T10:40:59;14.30;99.90
21035;DHT22;10676;50.848;3.272;2024-02-14T10:43:26;14.40;99.90
21035;DHT22;10676;50.848;3.272;2024-02-14T10:45:53;14.50;99.90
21035;DHT22;10676;50.848;3.272;2024-02-14T10:48:22;14.50;99.90
21035;DHT22;10676;50.848;3.272;2024-02-14T10:50:54;14.60;99.90
21035;DHT22;10676;50.848;3.272;2024-02-14T10:53:26;14.60;99.90
21035;DHT22;10676;50.848;3.272;2024-02-14T10:55:55;14.70;99.90
21035;DHT22;10676;50.848;3.272;2024-02-14T10:58:24;14.80;99.90
21035;DHT22;10676;50.848;3.272;2024-02-14T11:00:50;14.80;99.90
21035;DHT22;10676;50.848;3.272;2024-02-14T11:03:17;14.90;99.90
21035;DHT22;10676;50.848;3.272;2024-02-14T11:05:47;14.90;99.90
21035;DHT22;10676;50.848;3.272;2024-02-14T11:08:22;15.00;99.90
21035;DHT22;10676;50.848;3.272;2024-02-14T11:11:06;15.00;99.90
21035;DHT22;10676;50.848;3.272;2024-02-14T11:13:32;14.90;99.90
21035;DHT22;10676;50.848;3.272;2024-02-14T11:16:00;14.90;99.90
21035;DHT22;10676;50.848;3.272;2024-02-14T11:18:30;14.90;99.90
21035;DHT22;10676;50.848;3.272;2024-02-14T11:20:56;14.90;99.90
21035;DHT22;10676;50.848;3.272;2024-02-14T11:23:25;14.90;99.90
21035;DHT22;10676;50.848;3.272;2024-02-14T11:26:05;14.90;99.90
21035;DHT22;10676;50.848;3.272;2024-02-14T11:28:37;14.80;99.90
21035;DHT22;10676;50.848;3.272;2024-02-14T11:31:06;14.90;99.90
21035;DHT22;10676;50.848;3.272;2024-02-14T11:33:34;14.90;99.90
21035;DHT22;10676;50.848;3.272;2024-02-14T11:36:07;15.00;99.90
21035;DHT22;10676;50.848;3.272;2024-02-14T11:38:40;14.90;99.90
21035;DHT22;10676;50.848;3.272;2024-02-14T11:41:06;14.90;99.90
21035;DHT22;10676;50.848;3.272;2024-02-14T11:43:32;14.90;99.90
21035;DHT22;10676;50.848;3.272;2024-02-14T11:45:58;14.90;99.90
21035;DHT22;10676;50.848;3.272;2024-02-14T11:48:24;14.90;99.90
21035;DHT22;10676;50.848;3.272;2024-02-14T11:50:52;14.90;99.90
21035;DHT22;10676;50.848;3.272;2024-02-14T11:53:18;14.80;99.90
21035;DHT22;10676;50.848;3.272;2024-02-14T11:55:46;14.80;99.90
21035;DHT22;10676;50.848;3.272;2024-02-14T11:58:14;14.70;99.90
21035;DHT22;10676;50.848;3.272;2024-02-14T12:00:42;14.50;99.90
21035;DHT22;10676;50.848;3.272;2024-02-14T12:03:22;14.40;99.90
21035;DHT22;10676;50.848;3.272;2024-02-14T12:05:50;14.30;99.90
21035;DHT22;10676;50.848;3.272;2024-02-14T12:08:17;14.20;99.90
21035;DHT22;10676;50.848;3.272;2024-02-14T12:10:43;14.20;99.90
21035;DHT22;10676;50.848;3.272;2024-02-14T12:13:13;14.10;99.90
21035;DHT22;10676;50.848;3.272;2024-02-14T12:15:40;14.00;99.90
21035;DHT22;10676;50.848;3.272;2024-02-14T12:18:09;14.00;99.90
21035;DHT22;10676;50.848;3.272;2024-02-14T12:20:42;14.00;99.90
21035;DHT22;10676;50.848;3.272;2024-02-14T12:23:18;14.00;99.90
21035;DHT22;10676;50.848;3.272;2024-02-14T12:25:47;14.10;99.90
21035;DHT22;10676;50.848;3.272;2024-02-14T12:28:16;14.10;99.90
21035;DHT22;10676;50.848;3.272;2024-02-14T12:30:50;14.10;99.90
21035;DHT22;10676;50.848;3.272;2024-02-14T12:33:22;14.10;99.90
21035;DHT22;10676;50.848;3.272;2024-02-14T12:35:50;14.10;99.90
21035;DHT22;10676;50.848;3.272;2024-02-14T12:38:18;14.00;99.90
21035;DHT22;10676;50.848;3.272;2024-02-14T12:40:44;14.00;99.90
21035;DHT22;10676;50.848;3.272;2024-02-14T12:43:14;14.00;99.90
21035;DHT22;10676;50.848;3.272;2024-02-14T12:45:42;14.00;99.90
21035;DHT22;10676;50.848;3.272;2024-02-14T12:48:08;14.00;99.90
21035;DHT22;10676;50.848;3.272;2024-02-14T12:50:35;14.10;99.90
21035;DHT22;10676;50.848;3.272;2024-02-14T12:53:02;14.10;99.90
21035;DHT22;10676;50.848;3.272;2024-02-14T12:55:28;14.10;99.90
21035;DHT22;10676;50.848;3.272;2024-02-14T12:57:55;14.10;99.90
21035;DHT22;10676;50.848;3.272;2024-02-14T13:00:21;14.10;99.90
21035;DHT22;10676;50.848;3.272;2024-02-14T13:02:48;14.00;99.90
21035;DHT22;10676;50.848;3.272;2024-02-14T13:05:14;14.00;99.90
21035;DHT22;10676;50.848;3.272;2024-02-14T13:07:41;14.00;99.90
21035;DHT22;10676;50.848;3.272;2024-02-14T13:10:07;14.00;99.90
21035;DHT22;10676;50.848;3.272;2024-02-14T13:12:35;14.00;99.90
21035;DHT22;10676;50.848;3.272;2024-02-14T13:15:00;14.00;99.90
21035;DHT22;10676;50.848;3.272;2024-02-14T13:17:26;14.10;99.90
21035;DHT22;10676;50.848;3.272;2024-02-14T13:19:52;14.10;99.90
21035;DHT22;10676;50.848;3.272;2024-02-14T13:22:19;14.10;99.90
21035;DHT22;10676;50.848;3.272;2024-02-14T13:24:44;14.20;99.90
21035;DHT22;10676;50.848;3.272;2024-02-14T13:27:10;14.20;99.90
21035;DHT22;10676;50.848;3.272;2024-02-14T13:29:38;14.20;99.90
21035;DHT22;10676;50.848;3.272;2024-02-14T13:32:03;14.20;99.90
21035;DHT22;10676;50.848;3.272;2024-02-14T13:34:33;14.20;99.90
21035;DHT22;10676;50.848;3.272;2024-02-14T13:36:59;14.20;99.90
21035;DHT22;10676;50.848;3.272;2024-02-14T13:39:24;14.30;99.90
21035;DHT22;10676;50.848;3.272;2024-02-14T13:41:50;14.30;99.90
21035;DHT22;10676;50.848;3.272;2024-02-14T13:44:17;14.40;99.90
21035;DHT22;10676;50.848;3.272;2024-02-14T13:46:45;14.40;99.90
21035;DHT22;10676;50.848;3.272;2024-02-14T13:49:11;14.30;99.90
21035;DHT22;10676;50.848;3.272;2024-02-14T13:51:40;14.40;99.90
21035;DHT22;10676;50.848;3.272;2024-02-14T13:54:05;14.40;99.90
21035;DHT22;10676;50.848;3.272;2024-02-14T13:56:32;14.40;99.90
21035;DHT22;10676;50.848;3.272;2024-02-14T13:58:57;14.50;99.90
21035;DHT22;10676;50.848;3.272;2024-02-14T14:01:24;14.50;99.90
21035;DHT22;10676;50.848;3.272;2024-02-14T14:03:52;14.60;99.90
21035;DHT22;10676;50.848;3.272;2024-02-14T14:06:20;14.60;99.90
21035;DHT22;10676;50.848;3.272;2024-02-14T14:08:46;14.60;99.90
21035;DHT22;10676;50.848;3.272;2024-02-14T14:11:12;14.60;99.90
21035;DHT22;10676;50.848;3.272;2024-02-14T14:13:37;14.60;99.90
21035;DHT22;10676;50.848;3.272;2024-02-14T14:16:03;14.50;99.90
21035;DHT22;10676;50.848;3.272;2024-02-14T14:18:30;14.50;99.90
21035;DHT22;10676;50.848;3.272;2024-02-14T14:20:56;14.50;99.90
21035;DHT22;10676;50.848;3.272;2024-02-14T14:23:22;14.50;99.90
21035;DHT22;10676;50.848;3.272;2024-02-14T14:25:48;14.50;99.90
21035;DHT22;10676;50.848;3.272;2024-02-14T14:28:14;14.50;99.90
21035;DHT22;10676;50.848;3.272;2024-02-14T14:30:41;14.50;99.90
21035;DHT22;10676;50.848;3.272;2024-02-14T14:33:07;14.50;99.90
21035;DHT22;10676;50.848;3.272;2024-02-14T14:35:36;14.60;99.90
21035;DHT22;10676;50.848;3.272;2024-02-14T14:38:05;14.70;99.90
21035;DHT22;10676;50.848;3.272;2024-02-14T14:40:31;14.70;99.90
21035;DHT22;10676;50.848;3.272;2024-02-14T14:42:57;14.80;99.90
21035;DHT22;10676;50.848;3.272;2024-02-14T14:45:23;14.80;99.90
21035;DHT22;10676;50.848;3.272;2024-02-14T15:56:15;14.50;99.90
21035;DHT22;10676;50.848;3.272;2024-02-14T15:58:43;14.50;99.90
21035;DHT22;10676;50.848;3.272;2024-02-14T16:01:10;14.60;99.90
21035;DHT22;10676;50.848;3.272;2024-02-14T16:03:35;14.60;99.90
21035;DHT22;10676;50.848;3.272;2024-02-14T16:06:01;14.70;99.90
21035;DHT22;10676;50.848;3.272;2024-02-14T16:08:27;14.70;99.90
21035;DHT22;10676;50.848;3.272;2024-02-14T16:10:53;14.70;99.90
21035;DHT22;10676;50.848;3.272;2024-02-14T16:13:21;14.70;99.90
21035;DHT22;10676;50.848;3.272;2024-02-14T16:15:48;14.70;99.90
21035;DHT22;10676;50.848;3.272;2024-02-14T16:18:13;14.70;99.90
21035;DHT22;10676;50.848;3.272;2024-02-14T16:20:39;14.70;99.90
21035;DHT22;10676;50.848;3.272;2024-02-14T16:23:05;14.70;99.90
21035;DHT22;10676;50.848;3.272;2024-02-14T16:25:33;14.80;99.90
21035;DHT22;10676;50.848;3.272;2024-02-14T16:28:03;14.80;99.90
21035;DHT22;10676;50.848;3.272;2024-02-14T16:30:37;14.80;99.90
21035;DHT22;10676;50.848;3.272;2024-02-14T16:33:03;14.80;99.90
21035;DHT22;10676;50.848;3.272;2024-02-14T16:35:29;14.80;99.90